• Join FlightAware (Why Join?)
  • Login
  • US Flag 
11:21AM EDT


 

Airport Tracker/Info


-or-


 

Live Flight TrackerFlight Track Log ✈ UAL4553 ✈ 16-Jun-2013 ✈ KMCI - KEWR

Flight Track Log - Related Links

Times and Time Zones

All times are in EDT time to prevent confusion due to time zone crossing. See the UAL4553 flight status page for this flight to view local times or setup timezone preferences in your user account.

Time Position Orientation Groundspeed Altitude Reporting Facility
EDT Latitude Longitude Course Direction KTS MPH feet Rate Location/Type
07:47AM 39.2833 -94.7333 84° East 145 167 1,700  Level Kansas City TRACON
07:48AM 39.2333 -94.7167 166° South 221 254 3,800 1,920 Climbing Kansas City TRACON
07:49AM 39.2122 -94.7083 163° South 222 255 4,600 2,220 Climbing Kansas City Center
07:50AM 39.2008 -94.6192 99° East 248 285 7,000 2,100 Climbing Kansas City Center
07:51AM 39.3543 -94.1753 80° East  Level FlightAware Approximate
07:51AM 39.2269 -94.5269 70° East 286 329 8,900  Level Kansas City Center
07:52AM 39.3729 -94.0272 82° East  Level FlightAware Approximate
07:52AM 39.2539 -94.4289 70° East 301 346 11,000  Level Kansas City Center
07:53AM 39.3880 -93.8729 84° East  Level FlightAware Approximate
07:53AM 39.2889 -94.3031 70° East 340 391 12,100  Level Kansas City Center
07:54AM 39.3222 -94.1808 71° East 375 432 13,200 1,260 Climbing Kansas City Center
07:55AM 39.3578 -94.0567 70° East 386 444 14,600 1,500 Climbing Kansas City Center
07:56AM 39.3928 -93.9072 73° East 391 450 16,300 1,500 Climbing Kansas City Center
07:57AM 39.4078 -93.7739 82° East 392 451 17,700 1,380 Climbing Kansas City Center
07:58AM 39.4258 -93.6339 80° East 395 455 19,200 1,440 Climbing Kansas City Center
07:59AM 39.4450 -93.4944 80° East 398 458 20,700 1,440 Climbing Kansas City Center
08:00AM 39.4606 -93.3558 82° East 395 455 22,100 1,380 Climbing Kansas City Center
08:01AM 39.4758 -93.2156 82° East 397 457 23,600 1,380 Climbing Kansas City Center
08:02AM 39.4844 -93.0742 85° East 398 458 25,000 1,380 Climbing Kansas City Center
08:03AM 39.4958 -92.9297 84° East 405 466 26,500 1,440 Climbing Kansas City Center
08:04AM 39.5064 -92.7875 84° East 404 465 28,000 1,440 Climbing Kansas City Center
08:05AM 39.5167 -92.6458 85° East 403 464 29,400 1,380 Climbing Kansas City Center
08:06AM 39.5289 -92.4758 85° East 401 461 30,900 1,320 Climbing Kansas City Center
08:07AM 39.5408 -92.3311 84° East 405 466 32,100 1,080 Climbing Kansas City Center
08:08AM 39.5506 -92.1844 85° East 411 473 33,200 1,080 Climbing Kansas City Center
08:09AM 39.5611 -92.0367 85° East 415 478 34,400 840 Climbing Kansas City Center
08:10AM 39.5714 -91.8878 85° East 418 481 35,000 240 Climbing Kansas City Center
08:11AM 39.5803 -91.7322 86° East 429 494 35,000  Level Kansas City Center
08:12AM 39.5906 -91.5675 85° East 452 520 35,000  Level Kansas City Center
08:13AM 39.6036 -91.3917 84° East 478 550 35,000  Level Kansas City Center
08:14AM 39.6150 -91.1919 86° East 496 571 35,000  Level Kansas City Center
08:15AM 39.6269 -91.0081 85° East 505 581 35,000  Level Kansas City Center
08:16AM 39.6394 -90.8264 85° East 507 583 35,000  Level Kansas City Center
08:17AM 39.6489 -90.6444 86° East 506 582 35,000  Level Kansas City Center
08:18AM 39.6594 -90.4597 86° East 508 585 35,000  Level Kansas City Center
08:19AM 39.6697 -90.2733 86° East 514 592 35,000  Level Kansas City Center
08:20AM 39.6794 -90.0875 86° East 515 593 35,000 300 Level Kansas City Center
08:21AM 39.6889 -89.9039 86° East 512 589 35,700 840 Climbing Kansas City Center
08:22AM 39.6975 -89.7286 86° East 498 573 36,800 600 Climbing Kansas City Center
08:23AM 39.7056 -89.5567 86° East 483 556 37,000 60 Climbing Kansas City Center
08:24AM 39.7164 -89.3542 86° East 487 560 37,000  Level Kansas City Center
08:25AM 39.7236 -89.1739 87° East 496 571 37,000  Level Kansas City Center
08:26AM 39.7317 -88.9933 87° East 501 577 37,000  Level Kansas City Center
08:27AM 39.7400 -88.8094 87° East 508 585 37,000  Level Kansas City Center
08:28AM 39.7472 -88.6258 87° East 510 587 37,000  Level Kansas City Center
08:29AM 39.7542 -88.4431 87° East 508 585 37,000  Level Kansas City Center
08:30AM 39.7694 -88.2603 84° East 510 587 37,000  Level Kansas City Center
08:31AM 39.8042 -88.0900 75° East 504 580 37,000  Level Kansas City Center
08:32AM 39.8197 -88.0119 75° East 512 589 37,000  Level Indianapolis Center
08:32AM 39.8344 -87.9419 75° East 510 587 37,000  Level Indianapolis Center
08:33AM 39.8658 -87.7636 77° East 509 586 37,000  Level Indianapolis Center
08:34AM 39.8886 -87.5794 81° East 514 592 37,000  Level Indianapolis Center
08:35AM 39.9131 -87.3978 80° East 512 589 37,000  Level Indianapolis Center
08:36AM 39.9358 -87.2156 81° East 511 588 37,000  Level Indianapolis Center
08:37AM 39.9592 -87.0319 81° East 512 589 37,000  Level Indianapolis Center
08:38AM 39.9808 -86.8478 81° East 513 590 37,000  Level Indianapolis Center
08:39AM 40.0044 -86.6636 80° East 513 590 37,000  Level Indianapolis Center
08:40AM 40.0261 -86.4778 81° East 514 592 37,000  Level Indianapolis Center
08:41AM 40.0481 -86.2922 81° East 513 590 37,000  Level Indianapolis Center
08:42AM 40.0747 -86.0672 81° East 515 593 37,000  Level Indianapolis Center
08:43AM 40.0953 -85.8817 82° East 514 592 37,000  Level Indianapolis Center
08:44AM 40.1161 -85.6944 82° East 518 596 37,000  Level Indianapolis Center
08:45AM 40.1364 -85.5067 82° East 521 600 37,000  Level Indianapolis Center
08:46AM 40.1578 -85.3197 81° East 520 598 37,000  Level Indianapolis Center
08:47AM 40.1794 -85.1314 81° East 523 602 37,000  Level Indianapolis Center
08:48AM 40.2403 -84.9608 65° Northeast 516 594 37,000  Level Indianapolis Center
08:49AM 40.3147 -84.7689 63° Northeast 520 598 37,000  Level Indianapolis Center
08:50AM 40.3789 -84.5978 64° Northeast 518 596 37,000  Level Indianapolis Center
08:51AM 40.4439 -84.4269 63° Northeast 519 597 37,000  Level Indianapolis Center
08:52AM 40.5092 -84.2550 63° Northeast 519 597 37,000  Level Indianapolis Center
08:53AM 40.5731 -84.0822 64° Northeast 520 598 37,000  Level Indianapolis Center
08:54AM 40.6375 -83.9094 64° Northeast 520 598 37,000  Level Indianapolis Center
08:55AM 40.7014 -83.7364 64° Northeast 519 597 37,000  Level Indianapolis Center
08:57AM 40.7650 -83.5639 64° Northeast 517 595 37,000  Level Indianapolis Center
08:58AM 40.8111 -83.3711 72° East 527 606 37,000  Level Indianapolis Center
08:59AM 40.8408 -83.1803 78° East 527 606 37,000  Level Indianapolis Center
09:00AM 40.8700 -82.9897 78° East 527 606 37,000  Level Indianapolis Center
09:00AM 40.8867 -82.8572 81° East 528 608 37,000  Level Cleveland Center
09:01AM 40.9175 -82.6658 78° East 523 602 37,000  Level Cleveland Center
09:02AM 40.9436 -82.4772 80° East 523 602 37,000  Level Cleveland Center
09:03AM 40.9736 -82.2883 78° East 530 610 37,000  Level Cleveland Center
09:04AM 40.9994 -82.0964 80° East 530 610 37,000  Level Cleveland Center
09:05AM 41.0267 -81.9069 79° East 525 604 37,000  Level Cleveland Center
09:06AM 41.0517 -81.7147 80° East 525 604 37,000  Level Cleveland Center
09:07AM 41.0783 -81.5281 79° East 525 604 37,000  Level Cleveland Center
09:08AM 41.1047 -81.3408 79° East 525 604 37,000  Level Cleveland Center
09:09AM 41.1308 -81.1567 79° East 520 598 37,000  Level Cleveland Center
09:10AM 41.1567 -80.9692 80° East 520 598 37,000  Level Cleveland Center
09:11AM 41.1803 -80.7817 80° East 520 598 37,000  Level Cleveland Center
09:12AM 41.2053 -80.5886 80° East 520 598 37,000  Level Cleveland Center
09:13AM 41.2281 -80.4203 80° East 525 604 37,000  Level Cleveland Center
09:14AM 41.2569 -80.2103 80° East 525 604 37,000  Level Cleveland Center
09:15AM 41.2792 -80.0167 81° East 525 604 37,000  Level Cleveland Center
09:16AM 41.2989 -79.8453 81° East 525 604 37,000  Level Cleveland Center
09:17AM 41.3264 -79.6319 80° East 525 604 37,000  Level Cleveland Center
09:18AM 41.3497 -79.4408 81° East 525 604 37,000  Level Cleveland Center
09:19AM 41.3689 -79.2717 81° East 518 596 37,000  Level Cleveland Center
09:20AM 41.3914 -79.0803 81° East 518 596 37,000  Level Cleveland Center
09:21AM 41.4139 -78.8858 81° East 525 604 37,000  Level Cleveland Center
09:22AM 41.4336 -78.6942 82° East 525 604 37,000  Level Cleveland Center
09:23AM 41.4344 -78.5003 90° East 520 598 37,000 -600 Level Cleveland Center
09:25AM 41.4203 -78.2331 94° East 517 595 35,700 -1,440 Descending New York Center
09:26AM 41.4114 -78.0411 93° East 522 601 33,800 -2,040 Descending New York Center
09:27AM 41.4003 -77.8433 94° East 528 608 31,800 -1,440 Descending New York Center
09:28AM 41.3908 -77.6514 94° East 528 608 31,000 -420 Descending New York Center
09:29AM 41.3808 -77.4625 94° East 523 602 31,000  Level New York Center
09:30AM 41.3681 -77.2758 95° East 517 595 31,000  Level New York Center
09:31AM 41.3556 -77.0839 95° East 517 595 31,000 -540 Level New York Center
09:32AM 41.3447 -76.8950 94° East 517 595 30,000 -1,800 Descending New York Center
09:33AM 41.3169 -76.7044 101° East 517 595 27,500 -2,460 Descending New York Center
09:34AM 41.2694 -76.5264 109° East 517 595 25,100 -2,460 Descending New York Center
09:35AM 41.2194 -76.3511 111° Southeast 510 587 22,600 -2,460 Descending New York Center
09:36AM 41.1753 -76.1819 109° East 496 571 20,200 -2,520 Descending New York Center
09:37AM 41.1342 -76.0272 109° East 464 534 17,600 -2,400 Descending New York Center
09:38AM 41.0950 -75.8756 109° East 445 512 15,500 -2,040 Descending New York Center
09:39AM 41.0569 -75.7406 110° East 434 499 13,700 -1,320 Descending New York Center
09:40AM 41.0136 -75.5806 110° East 426 490 12,900 -420 Descending New York Center
09:41AM 40.9717 -75.4347 111° Southeast 420 483 12,900 -360 Level New York Center
09:42AM 40.9353 -75.2978 109° East 415 478 12,200 -1,200 Descending New York Center
09:43AM 40.9039 -75.1911 111° Southeast 373 429 10,600 -1,620 Descending New York Center
09:44AM 40.8728 -75.0767 110° East 340 391 9,100 -1,560 Descending New York Center
09:45AM 40.8394 -74.9622 111° Southeast 317 365 7,500 -1,080 Descending New York Center
09:46AM 40.8242 -74.8597 101° East 300 345 7,000 -300 Descending New York Center
09:47AM 40.8678 -74.7444 63° Northeast 293 337 7,000 -420 Level New York Center
09:48AM 40.8878 -74.6386 76° East 293 337 6,200 -660 Descending New York Center
09:48AM 40.9000 -74.5833 74° East 299 344 6,000 -600 Descending New York TRACON
09:49AM 40.9167 -74.4667 79° East 290 334 5,300 -540 Descending New York TRACON
09:50AM 40.9333 -74.3833 75° East 283 326 5,000 -300 Descending New York TRACON
09:51AM 40.9500 -74.2833 78° East 292 336 4,800 -540 Descending New York TRACON
09:52AM 40.9167 -74.1833 114° Southeast 276 318 4,000 -660 Descending New York TRACON
09:53AM 40.8833 -74.1000 118° Southeast 255 293 3,500 -600 Descending New York TRACON
09:54AM 40.8167 -74.0833 169° South 228 262 2,800 -720 Descending New York TRACON